createdAt,value
2024-05-09T00:00:42.333Z,99.90
2024-05-09T00:03:11.226Z,99.90
2024-05-09T00:05:40.461Z,99.90
2024-05-09T00:08:08.920Z,99.90
2024-05-09T00:10:38.591Z,99.90
2024-05-09T00:13:07.682Z,99.90
2024-05-09T00:15:36.145Z,99.90
2024-05-09T00:18:07.611Z,99.90
2024-05-09T00:20:39.124Z,99.90
2024-05-09T00:23:08.899Z,99.90
2024-05-09T00:25:36.633Z,99.90
2024-05-09T00:28:04.306Z,99.90
2024-05-09T00:30:35.171Z,99.90
2024-05-09T00:33:08.560Z,99.90
2024-05-09T00:35:37.426Z,99.90
2024-05-09T00:38:05.351Z,99.90
2024-05-09T00:40:39.703Z,99.90
2024-05-09T00:43:09.847Z,99.90
2024-05-09T00:45:37.290Z,99.90
2024-05-09T00:48:09.462Z,99.90
2024-05-09T00:50:41.548Z,99.90
2024-05-09T00:53:11.969Z,99.90
2024-05-09T00:55:40.240Z,99.90
2024-05-09T00:58:09.895Z,99.90
2024-05-09T01:00:40.125Z,99.90
2024-05-09T01:03:13.069Z,99.90
2024-05-09T01:05:43.025Z,99.90
2024-05-09T01:08:11.723Z,99.90
2024-05-09T01:10:40.781Z,99.90
2024-05-09T01:13:10.159Z,99.90
2024-05-09T01:15:43.491Z,99.90
2024-05-09T01:18:14.192Z,99.90
2024-05-09T01:20:44.399Z,99.90
2024-05-09T01:23:16.604Z,99.90
2024-05-09T01:25:46.152Z,99.90
2024-05-09T01:28:15.319Z,99.90
2024-05-09T01:30:42.801Z,99.90
2024-05-09T01:33:12.136Z,99.90
2024-05-09T01:35:42.243Z,99.90
2024-05-09T01:38:14.192Z,99.90
2024-05-09T01:40:45.276Z,99.90
2024-05-09T01:43:13.624Z,99.90
2024-05-09T01:45:41.716Z,99.90
2024-05-09T01:48:11.204Z,99.90
2024-05-09T01:50:42.083Z,99.90
2024-05-09T01:53:13.372Z,99.90
2024-05-09T01:55:44.510Z,99.90
2024-05-09T01:58:13.144Z,99.90
2024-05-09T02:00:42.693Z,99.90
2024-05-09T02:03:16.482Z,99.90
2024-05-09T02:05:47.238Z,99.90
2024-05-09T02:08:18.287Z,99.90
2024-05-09T02:10:50.465Z,99.90
2024-05-09T02:13:18.216Z,99.90
2024-05-09T02:15:45.977Z,99.90
2024-05-09T02:18:14.470Z,99.90
2024-05-09T02:20:43.295Z,99.90
2024-05-09T02:23:12.119Z,99.90
2024-05-09T02:25:41.959Z,99.90
2024-05-09T02:28:12.361Z,99.90
2024-05-09T02:30:41.985Z,99.90
2024-05-09T02:33:12.479Z,99.90
2024-05-09T02:35:42.386Z,99.90
2024-05-09T02:38:10.680Z,99.90
2024-05-09T02:40:39.977Z,99.90
2024-05-09T02:43:12.675Z,99.90
2024-05-09T02:45:41.147Z,99.90
2024-05-09T02:48:12.777Z,99.90
2024-05-09T02:50:42.331Z,99.90
2024-05-09T02:53:14.009Z,99.90
2024-05-09T02:55:43.418Z,99.90
2024-05-09T02:58:14.407Z,99.90
2024-05-09T03:00:42.903Z,99.90
2024-05-09T03:03:13.798Z,99.90
2024-05-09T03:05:43.815Z,99.90
2024-05-09T03:08:11.584Z,99.90
2024-05-09T03:10:40.121Z,99.90
2024-05-09T03:13:08.390Z,99.90
2024-05-09T03:15:38.897Z,99.90
2024-05-09T03:18:07.454Z,99.90
2024-05-09T03:20:36.308Z,99.90
2024-05-09T03:23:06.271Z,99.90
2024-05-09T03:25:34.582Z,99.90
2024-05-09T03:28:02.350Z,99.90
2024-05-09T03:30:39.105Z,99.90
2024-05-09T03:33:17.398Z,99.90
2024-05-09T03:35:47.550Z,99.90
2024-05-09T03:38:50.905Z,99.90
2024-05-09T03:41:20.892Z,99.90
2024-05-09T03:43:48.194Z,99.90
2024-05-09T03:46:15.486Z,99.90
2024-05-09T03:48:45.517Z,99.90
2024-05-09T03:51:12.963Z,99.90
2024-05-09T03:53:40.463Z,99.90
2024-05-09T03:56:08.341Z,99.90
2024-05-09T03:58:35.537Z,99.90
2024-05-09T04:01:02.729Z,99.90
2024-05-09T04:03:30.267Z,99.90
2024-05-09T04:06:00.277Z,99.90
2024-05-09T04:08:27.554Z,99.90
2024-05-09T04:10:54.912Z,99.90
2024-05-09T04:13:22.090Z,99.90
2024-05-09T04:15:49.415Z,99.90
2024-05-09T04:18:18.140Z,99.90
2024-05-09T04:20:46.633Z,99.90
2024-05-09T04:23:16.610Z,99.90
2024-05-09T04:25:45.508Z,99.90
2024-05-09T04:28:13.647Z,99.90
2024-05-09T04:30:41.841Z,99.90
2024-05-09T04:33:12.395Z,99.90
2024-05-09T04:35:44.345Z,99.90
2024-05-09T04:38:12.501Z,99.90
2024-05-09T04:40:42.505Z,99.90
2024-05-09T04:43:16.108Z,99.90
2024-05-09T04:45:43.631Z,99.90
2024-05-09T04:48:11.310Z,99.90
2024-05-09T04:50:39.758Z,99.90
2024-05-09T04:53:10.168Z,99.90
2024-05-09T04:55:41.286Z,99.90
2024-05-09T04:58:09.120Z,99.90
2024-05-09T05:00:38.778Z,99.90
2024-05-09T05:03:10.519Z,99.90
2024-05-09T05:05:41.008Z,99.90
2024-05-09T05:08:12.255Z,99.90
2024-05-09T05:10:42.793Z,99.90
2024-05-09T05:13:18.329Z,99.90
2024-05-09T05:15:46.899Z,99.90
2024-05-09T05:18:15.250Z,99.90
2024-05-09T05:20:42.741Z,99.90
2024-05-09T05:23:13.454Z,99.90
2024-05-09T05:25:44.625Z,99.90
2024-05-09T05:28:11.881Z,99.90
2024-05-09T05:30:40.856Z,99.90
2024-05-09T05:33:11.864Z,99.90
2024-05-09T05:35:39.418Z,99.90
2024-05-09T05:38:08.170Z,99.90
2024-05-09T05:40:38.424Z,99.90
2024-05-09T05:43:15.837Z,99.90
2024-05-09T05:45:43.027Z,99.90
2024-05-09T05:48:10.636Z,99.90
2024-05-09T05:50:38.787Z,99.90
2024-05-09T05:53:08.256Z,99.90
2024-05-09T05:55:36.232Z,99.90
2024-05-09T05:58:03.983Z,99.90
2024-05-09T06:00:38.578Z,99.90
2024-05-09T06:03:08.846Z,99.90
2024-05-09T06:05:37.148Z,99.90
2024-05-09T06:08:05.681Z,99.90
2024-05-09T06:10:38.346Z,99.90
2024-05-09T06:13:10.340Z,99.90
2024-05-09T06:15:41.024Z,99.90
2024-05-09T06:18:09.687Z,99.90
2024-05-09T06:20:39.662Z,99.90
2024-05-09T06:23:08.000Z,99.90
2024-05-09T06:25:35.930Z,99.90
2024-05-09T06:28:04.007Z,99.90
2024-05-09T06:30:38.702Z,99.90
2024-05-09T06:33:14.378Z,99.90
2024-05-09T06:35:43.620Z,99.90
2024-05-09T06:38:11.701Z,99.90
2024-05-09T06:40:42.610Z,99.90
2024-05-09T06:43:12.211Z,99.90
2024-05-09T06:45:40.220Z,99.90
2024-05-09T06:48:11.410Z,99.90
2024-05-09T06:50:39.960Z,99.90
2024-05-09T06:53:08.174Z,99.90
2024-05-09T06:55:36.461Z,99.90
2024-05-09T06:58:06.488Z,99.90
2024-05-09T07:00:39.118Z,99.90
2024-05-09T07:03:13.806Z,99.90
2024-05-09T07:05:47.543Z,99.90
2024-05-09T07:08:16.410Z,99.90
2024-05-09T07:10:43.999Z,99.90
2024-05-09T07:13:12.834Z,99.90
2024-05-09T07:15:41.123Z,99.90
2024-05-09T07:18:12.880Z,99.90
2024-05-09T07:20:40.803Z,99.90
2024-05-09T07:23:10.026Z,99.90
2024-05-09T07:25:37.569Z,99.90
2024-05-09T07:28:05.935Z,99.90
2024-05-09T07:30:34.733Z,99.90
2024-05-09T07:33:03.596Z,99.90
2024-05-09T07:35:34.180Z,99.90
2024-05-09T07:38:01.717Z,99.90
2024-05-09T07:40:35.574Z,99.90
2024-05-09T07:43:04.944Z,99.90
2024-05-09T07:52:32.559Z,99.90
2024-05-09T07:55:56.035Z,99.90
2024-05-09T07:58:27.487Z,99.90
2024-05-09T08:00:55.320Z,99.90
2024-05-09T08:03:22.998Z,99.90
2024-05-09T08:05:54.347Z,99.90
2024-05-09T08:08:21.482Z,99.90
2024-05-09T08:10:48.807Z,99.90
2024-05-09T08:13:16.077Z,99.90
2024-05-09T08:15:43.463Z,99.90
2024-05-09T08:18:11.342Z,99.90
2024-05-09T08:20:39.783Z,99.90
2024-05-09T08:23:11.265Z,99.90
2024-05-09T08:25:38.826Z,99.90
2024-05-09T08:28:06.929Z,99.90
2024-05-09T08:30:37.268Z,99.90
2024-05-09T08:33:07.191Z,99.90
2024-05-09T08:35:35.798Z,99.90
2024-05-09T08:38:04.246Z,99.90
2024-05-09T08:40:37.015Z,99.90
2024-05-09T08:43:12.488Z,99.90
2024-05-09T08:45:43.151Z,99.90
2024-05-09T08:48:15.496Z,99.90
2024-05-09T08:50:45.271Z,99.90
2024-05-09T08:53:15.124Z,99.90
2024-05-09T08:55:46.854Z,99.90
2024-05-09T08:58:18.017Z,99.90
2024-05-09T09:00:47.463Z,99.90
2024-05-09T09:03:18.161Z,99.90
2024-05-09T09:05:53.151Z,99.90
2024-05-09T09:08:21.376Z,99.90
2024-05-09T09:10:55.350Z,99.90
2024-05-09T09:13:22.535Z,99.90
2024-05-09T09:15:50.884Z,99.90
2024-05-09T09:18:19.234Z,99.90
2024-05-09T09:20:48.310Z,99.90
2024-05-09T09:23:15.670Z,99.90
2024-05-09T09:25:43.407Z,99.90
2024-05-09T09:28:13.641Z,99.90
2024-05-09T09:30:41.815Z,99.90
2024-05-09T09:33:10.463Z,99.90
2024-05-09T09:35:40.353Z,99.90
2024-05-09T09:38:09.928Z,99.90
2024-05-09T09:40:46.535Z,99.90
2024-05-09T09:43:21.546Z,99.90
2024-05-09T09:45:52.181Z,99.10
2024-05-09T09:48:21.539Z,98.80
2024-05-09T09:50:51.316Z,98.90
2024-05-09T09:53:19.247Z,99.20
2024-05-09T09:55:47.307Z,99.50
2024-05-09T09:58:19.722Z,98.80
2024-05-09T10:00:47.331Z,99.00
2024-05-09T10:03:15.014Z,99.10
2024-05-09T10:05:45.381Z,99.10
2024-05-09T10:08:17.895Z,98.80
2024-05-09T10:10:50.086Z,98.90
2024-05-09T10:13:21.222Z,98.60
2024-05-09T10:15:52.918Z,98.00
2024-05-09T10:18:28.415Z,98.90
2024-05-09T10:20:58.000Z,98.40
2024-05-09T10:23:26.479Z,98.50
2024-05-09T10:25:59.073Z,98.80
2024-05-09T10:28:30.747Z,99.10
2024-05-09T10:31:08.796Z,98.70
2024-05-09T10:33:45.260Z,98.20
2024-05-09T10:36:14.193Z,97.80
2024-05-09T10:38:43.452Z,97.80
2024-05-09T10:41:12.102Z,97.50
2024-05-09T10:43:42.454Z,98.70
2024-05-09T10:46:11.476Z,98.30
2024-05-09T10:48:40.234Z,98.10
2024-05-09T10:51:09.119Z,97.90
2024-05-09T10:53:41.459Z,98.10
2024-05-09T10:56:09.394Z,98.00
2024-05-09T10:58:36.781Z,97.80
2024-05-09T11:01:10.271Z,97.80
2024-05-09T11:03:39.016Z,98.00
2024-05-09T11:06:07.167Z,98.00
2024-05-09T11:08:35.191Z,98.40
2024-05-09T11:11:07.593Z,97.60
2024-05-09T11:13:37.476Z,97.80
2024-05-09T11:16:20.035Z,97.40
2024-05-09T11:18:55.928Z,96.40
2024-05-09T11:21:24.735Z,95.00
2024-05-09T11:23:52.492Z,94.90
2024-05-09T11:26:21.630Z,95.00
2024-05-09T11:28:50.394Z,95.30
2024-05-09T11:31:20.654Z,94.90
2024-05-09T11:33:48.212Z,94.60
2024-05-09T11:36:16.112Z,94.70
2024-05-09T11:38:43.498Z,94.30
2024-05-09T11:41:17.789Z,94.50
2024-05-09T11:43:45.027Z,95.00
2024-05-09T11:46:12.540Z,95.30
2024-05-09T11:48:42.727Z,93.90
2024-05-09T11:51:10.162Z,93.80
2024-05-09T11:53:37.334Z,93.30
2024-05-09T11:56:05.476Z,93.40
2024-05-09T11:58:34.760Z,93.40
2024-05-09T12:01:02.402Z,93.00
2024-05-09T12:03:30.118Z,92.50
2024-05-09T12:06:00.498Z,91.70
2024-05-09T12:08:27.983Z,91.90
2024-05-09T12:10:55.438Z,91.40
2024-05-09T12:13:23.142Z,91.50
2024-05-09T12:15:50.477Z,91.90
2024-05-09T12:18:17.820Z,92.00
2024-05-09T12:20:45.058Z,91.90
2024-05-09T12:23:15.276Z,91.90
2024-05-09T12:25:42.562Z,92.90
2024-05-09T12:28:10.055Z,92.90
2024-05-09T12:30:41.548Z,94.50
2024-05-09T12:33:11.274Z,93.30
2024-05-09T12:35:44.227Z,92.40
2024-05-09T12:38:16.552Z,91.60
2024-05-09T12:40:44.524Z,90.50
2024-05-09T12:43:13.178Z,91.80
2024-05-09T12:45:41.014Z,91.50
2024-05-09T12:48:12.422Z,90.80
2024-05-09T12:50:42.316Z,89.90
2024-05-09T12:53:10.513Z,88.40
2024-05-09T12:55:48.414Z,86.50
2024-05-09T12:58:22.985Z,89.10
2024-05-09T13:00:52.465Z,90.00
2024-05-09T13:03:20.477Z,86.80
2024-05-09T13:05:49.757Z,88.60
2024-05-09T13:08:18.723Z,90.20
2024-05-09T13:10:50.719Z,90.90
2024-05-09T13:13:18.745Z,90.00
2024-05-09T13:15:47.626Z,90.50
2024-05-09T13:18:15.472Z,90.00
2024-05-09T13:20:44.717Z,87.90
2024-05-09T13:23:12.333Z,86.10
2024-05-09T13:25:40.802Z,83.00
2024-05-09T13:28:11.479Z,85.20
2024-05-09T13:30:41.887Z,89.40
2024-05-09T13:33:12.066Z,89.70
2024-05-09T13:35:47.388Z,89.40
2024-05-09T13:38:20.927Z,88.20
2024-05-09T13:40:50.329Z,87.90
2024-05-09T13:43:23.678Z,88.80
2024-05-09T13:45:52.230Z,88.50
2024-05-09T13:48:20.410Z,85.50
2024-05-09T13:50:48.740Z,87.80
2024-05-09T13:53:16.067Z,87.80
2024-05-09T13:55:43.588Z,88.00
2024-05-09T13:58:11.596Z,89.30
2024-05-09T14:00:48.204Z,88.10
2024-05-09T14:03:19.840Z,87.60
2024-05-09T14:05:51.178Z,88.10
2024-05-09T14:08:22.420Z,89.00
2024-05-09T14:10:50.842Z,88.80
2024-05-09T14:13:20.421Z,84.30
2024-05-09T14:15:51.414Z,86.10
2024-05-09T14:18:19.531Z,84.10
2024-05-09T14:20:48.165Z,85.60
2024-05-09T14:23:18.212Z,84.00
2024-05-09T14:25:49.073Z,86.10
2024-05-09T14:28:20.287Z,83.10
2024-05-09T14:30:51.936Z,83.00
2024-05-09T14:33:25.741Z,84.50
2024-05-09T14:35:54.214Z,84.20
2024-05-09T14:38:21.740Z,84.50
2024-05-09T14:40:50.748Z,85.00
2024-05-09T14:43:20.090Z,83.90
2024-05-09T14:45:51.614Z,82.10
2024-05-09T14:48:20.400Z,85.70
2024-05-09T14:50:48.657Z,85.00
2024-05-09T14:53:15.908Z,83.00
2024-05-09T14:55:43.961Z,80.80
2024-05-09T14:58:12.656Z,81.40
2024-05-09T15:00:46.651Z,81.00
2024-05-09T15:03:21.367Z,80.80
2024-05-09T15:05:49.436Z,80.10
2024-05-09T15:08:18.206Z,83.10
2024-05-09T15:10:46.143Z,83.00
2024-05-09T15:13:16.263Z,82.60
2024-05-09T15:15:59.492Z,83.40
2024-05-09T15:18:30.786Z,81.70
2024-05-09T15:20:58.297Z,80.40
2024-05-09T15:23:25.891Z,80.00
2024-05-09T15:25:53.132Z,81.90
2024-05-09T15:28:20.755Z,83.70
2024-05-09T15:30:48.207Z,83.30
2024-05-09T15:33:15.898Z,86.60
2024-05-09T15:35:47.328Z,84.20
2024-05-09T15:38:15.639Z,86.10
2024-05-09T15:40:42.983Z,84.20
2024-05-09T15:43:11.592Z,82.60
2024-05-09T15:45:39.975Z,78.80
2024-05-09T15:48:09.884Z,81.80
2024-05-09T15:50:40.836Z,80.70
2024-05-09T15:53:13.476Z,79.80
2024-05-09T15:55:41.979Z,78.30
2024-05-09T15:58:09.795Z,79.70
2024-05-09T16:00:41.200Z,78.70
2024-05-09T16:03:11.276Z,80.40
2024-05-09T16:05:40.763Z,82.10
2024-05-09T16:08:11.364Z,82.90
2024-05-09T16:10:43.551Z,85.20
2024-05-09T16:13:12.359Z,86.40
2024-05-09T16:15:40.153Z,88.70
2024-05-09T16:18:08.111Z,86.60
2024-05-09T16:20:40.092Z,83.90
2024-05-09T16:23:12.715Z,82.60
2024-05-09T16:25:45.078Z,82.90
2024-05-09T16:28:12.611Z,80.30
2024-05-09T16:30:40.347Z,78.00
2024-05-09T16:33:08.771Z,76.30
2024-05-09T16:35:37.050Z,74.20
2024-05-09T16:38:05.093Z,74.30
2024-05-09T16:40:39.159Z,71.20
2024-05-09T16:43:09.129Z,69.70
2024-05-09T16:45:37.100Z,65.90
2024-05-09T16:48:06.099Z,62.40
2024-05-09T16:50:35.408Z,61.40
2024-05-09T16:53:03.950Z,60.00
2024-05-09T16:55:34.749Z,60.40
2024-05-09T16:58:02.747Z,58.50
2024-05-09T17:00:39.413Z,57.50
2024-05-09T17:03:12.602Z,56.10
2024-05-09T17:05:41.289Z,56.80
2024-05-09T17:08:09.169Z,59.40
2024-05-09T17:10:39.697Z,58.70
2024-05-09T17:13:08.087Z,58.80
2024-05-09T17:15:36.886Z,57.30
2024-05-09T17:18:20.270Z,57.00
2024-05-09T17:20:50.278Z,57.90
2024-05-09T17:23:17.768Z,60.40
2024-05-09T17:25:47.942Z,61.10
2024-05-09T17:28:15.337Z,62.90
2024-05-09T17:30:43.143Z,65.20
2024-05-09T17:33:11.625Z,67.60
2024-05-09T17:35:39.964Z,68.10
2024-05-09T17:38:07.531Z,68.20
2024-05-09T17:40:37.198Z,70.10
2024-05-09T17:43:10.422Z,70.80
2024-05-09T17:45:39.247Z,72.20
2024-05-09T17:48:09.690Z,74.30
2024-05-09T17:50:38.093Z,75.00
2024-05-09T17:53:06.455Z,77.40
2024-05-09T17:55:34.411Z,77.00
2024-05-09T17:58:02.116Z,77.60
2024-05-09T18:00:47.658Z,76.00
2024-05-09T18:03:15.197Z,77.00
2024-05-09T18:05:43.784Z,77.50
2024-05-09T18:08:12.075Z,79.00
2024-05-09T18:10:41.198Z,79.90
2024-05-09T18:13:09.414Z,80.30
2024-05-09T18:15:40.269Z,80.70
2024-05-09T18:18:08.941Z,82.10
2024-05-09T18:20:42.862Z,85.10
2024-05-09T18:23:16.507Z,87.20
2024-05-09T18:25:45.310Z,88.70
2024-05-09T18:28:12.723Z,88.10
2024-05-09T18:30:43.168Z,88.20
2024-05-09T18:33:11.700Z,90.10
2024-05-09T18:35:43.933Z,90.30
2024-05-09T18:38:11.479Z,90.10
2024-05-09T18:40:40.218Z,90.60
2024-05-09T18:43:09.428Z,91.20
2024-05-09T18:45:38.035Z,91.80
2024-05-09T18:48:12.217Z,92.10
2024-05-09T18:50:41.198Z,93.00
2024-05-09T18:53:11.080Z,92.90
2024-05-09T18:55:39.255Z,93.90
2024-05-09T18:58:07.090Z,93.80
2024-05-09T19:00:37.945Z,93.80
2024-05-09T19:03:12.825Z,94.60
2024-05-09T19:05:43.179Z,95.30
2024-05-09T19:08:11.664Z,95.50
2024-05-09T19:10:39.593Z,95.90
2024-05-09T19:13:11.153Z,96.20
2024-05-09T19:15:41.519Z,96.20
2024-05-09T19:18:12.872Z,96.50
2024-05-09T19:20:40.694Z,96.90
2024-05-09T19:23:08.121Z,97.00
2024-05-09T19:25:36.377Z,97.10
2024-05-09T19:28:05.184Z,96.70
2024-05-09T19:30:39.402Z,97.00
2024-05-09T19:33:13.260Z,97.60
2024-05-09T19:35:41.825Z,98.70
2024-05-09T19:38:09.158Z,98.90
2024-05-09T19:40:36.742Z,99.40
2024-05-09T19:43:05.576Z,99.70
2024-05-09T19:45:34.593Z,99.60
2024-05-09T19:48:03.262Z,99.90
2024-05-09T19:50:40.971Z,99.90
2024-05-09T19:53:12.103Z,99.90
2024-05-09T19:55:39.804Z,99.90
2024-05-09T19:58:08.259Z,99.90
2024-05-09T20:00:39.537Z,99.90
2024-05-09T20:03:10.368Z,99.90
2024-05-09T20:05:42.085Z,99.90
2024-05-09T20:08:09.320Z,99.90
2024-05-09T20:10:37.481Z,99.90
2024-05-09T20:13:06.883Z,99.90
2024-05-09T20:15:36.846Z,99.90
2024-05-09T20:18:05.295Z,99.90
2024-05-09T20:20:39.534Z,99.90
2024-05-09T20:23:13.083Z,99.90
2024-05-09T20:25:40.625Z,99.90
2024-05-09T20:28:08.325Z,99.90
2024-05-09T20:30:36.420Z,99.90
2024-05-09T20:33:07.333Z,99.90
2024-05-09T20:35:36.132Z,99.90
2024-05-09T20:38:04.231Z,99.90
2024-05-09T20:40:37.869Z,99.90
2024-05-09T20:43:07.781Z,99.90
2024-05-09T20:45:35.745Z,99.90
2024-05-09T20:48:03.430Z,99.90
2024-05-09T20:50:38.644Z,99.90
2024-05-09T20:53:09.866Z,99.90
2024-05-09T20:55:40.271Z,99.90
2024-05-09T20:58:08.282Z,99.90
2024-05-09T21:00:40.203Z,99.90
2024-05-09T21:03:16.502Z,99.90
2024-05-09T21:05:44.990Z,99.90
2024-05-09T21:08:12.403Z,99.90
2024-05-09T21:10:42.213Z,99.90
2024-05-09T21:13:10.625Z,99.90
2024-05-09T21:15:39.043Z,99.90
2024-05-09T21:18:07.879Z,99.90
2024-05-09T21:20:37.917Z,99.90
2024-05-09T21:23:06.004Z,99.90
2024-05-09T21:25:33.863Z,99.90
2024-05-09T21:28:05.570Z,99.90
2024-05-09T21:33:05.278Z,99.90
2024-05-09T21:35:35.873Z,99.90
2024-05-09T21:38:04.869Z,99.90
2024-05-09T21:40:35.153Z,99.90
2024-05-09T21:43:09.456Z,99.90
2024-05-09T21:45:39.556Z,99.90
2024-05-09T21:48:08.353Z,99.90
2024-05-09T21:50:40.188Z,99.90
2024-05-09T21:53:09.846Z,99.90
2024-05-09T21:55:37.217Z,99.90
2024-05-09T21:58:07.303Z,99.90
2024-05-09T22:00:38.205Z,99.90
2024-05-09T22:03:07.694Z,99.90
2024-05-09T22:05:36.068Z,99.90
2024-05-09T22:08:03.760Z,99.90
2024-05-09T22:10:34.699Z,99.90
2024-05-09T22:13:07.125Z,99.90
2024-05-09T22:15:37.012Z,99.90
2024-05-09T22:18:06.326Z,99.90
2024-05-09T22:20:38.049Z,99.90
2024-05-09T22:23:06.866Z,99.90
2024-05-09T22:25:34.421Z,99.90
2024-05-09T22:28:03.034Z,99.90
2024-05-09T22:30:37.357Z,99.90
2024-05-09T22:33:07.806Z,99.90
2024-05-09T22:35:35.391Z,99.90
2024-05-09T22:38:03.263Z,99.90
2024-05-09T22:40:41.653Z,99.90
2024-05-09T22:43:21.732Z,99.90
2024-05-09T22:45:56.625Z,99.90
2024-05-09T22:48:24.892Z,99.90
2024-05-09T22:50:53.288Z,99.90
2024-05-09T22:53:21.962Z,99.90
2024-05-09T22:55:49.082Z,99.90
2024-05-09T22:58:16.465Z,99.90
2024-05-09T23:00:43.851Z,99.90
2024-05-09T23:03:16.614Z,99.90
2024-05-09T23:05:43.996Z,99.90
2024-05-09T23:08:11.413Z,99.90
2024-05-09T23:10:39.221Z,99.90
2024-05-09T23:13:07.812Z,99.90
2024-05-09T23:15:37.628Z,99.90
2024-05-09T23:18:05.955Z,99.90
2024-05-09T23:23:21.195Z,99.90
2024-05-09T23:25:49.842Z,99.90
2024-05-09T23:28:17.144Z,99.90
2024-05-09T23:30:44.414Z,99.90
2024-05-09T23:33:13.455Z,99.90
2024-05-09T23:35:44.658Z,99.90
2024-05-09T23:38:12.384Z,99.90
2024-05-09T23:40:41.421Z,99.90
2024-05-09T23:43:10.411Z,99.90
2024-05-09T23:45:38.515Z,99.90
2024-05-09T23:48:07.593Z,99.90
2024-05-09T23:50:37.870Z,99.90
2024-05-09T23:53:10.636Z,99.90
2024-05-09T23:55:38.996Z,99.90
2024-05-09T23:58:06.608Z,99.90
